Minot Air Force Base
KMIB : now visible

Airfield :











YOU CAN JOIN US ON...

 
LOGIN :

Register | Disclaimer

   EN    FR    IT 

 









Legend :    VFR   Marginal VFR   IFR   Intensive IFR   Very Intensive IFR
Visi :
Ceiling :
>= 8 km
>= 3000ft
5 to 8 km
1000 to 3000 ft
1500m to 5 km
500 to 1000 ft
800 to 1500m
200 to 500 ft
< 800m
< 200 ft
Symbols :   Thunderstorms  Fog  Heavy snow  Heavy precipitations  Wind > 20 kt






- Airport Elevation : 1667 ft


KMIB - Minot Air Force Base

CURRENT METAR :
  • 080835Z AUTO 02012KT 10SM -FZRA CLR M06/M08 A2981 RMK AO2 FZDZE0755FZRAB0755E02SNB02E35FZRAB35 PRESRR SLP120 $

EXPIRED METARs :
  • 080755Z 02014KT 3SM -FZDZ BR BKN005 M06/M07 A2978 RMK FZDZE0657FZDZB00E14FZDZB20E53FZRAB53 SLP110 P0000 T10561070 $
  • 080654Z 01014KT 3SM FZDZ BR BKN003 M04/M06 A2975 RMK FZDZE0559FZDZB01E05FZRAB05E20DZB20E21FZDZB21 SLP098 P0000 T10451056 $
  • 080623Z 03016KT 5SM +FZDZ BR BKN003 M03/M04 A2972 RMK AO2A FZDZE0559FZDZB01E05FZRAB05E20DZB20E21FZDZB21 CIG 002 RWY12 SLP088 $
  • 080601Z AUTO 01015KT 4SM -FZDZ BR OVC002 M02/M03 A2972 RMK AO2 VIS 2 1/2 RWY12 FZDZE0559FZDZB01 SLP088 $
  • 080556Z AUTO 01015KT 3SM FZDZ BR OVC002 M02/M03 A2972 RMK AO2 VIS 2 1/4 RWY12 FZDZB21 PRESRR SLP088 P0000 60000 T10181026 10028 21018 400501059 52034 $

Expired Forecast.



MET'MAP, your aeronautical weather chart ! - Copyright ORBIFLY December 2007 - Disclaimer

ORBIFLY MET'MAP TEAM :

Programming & Development : Alexandra Zaïnal
Concept & original design : Baudouin d'Aumeries
Assistance for programming : Marc-Olivier Méhu
Technical & hardware support : Manuel Goepfert

Contact : metmap@orbifly.com




SOURCES & CREDITS :

   NOAA       Earth
Advisory